sensor_id;sensor_type;location;lat;lon;timestamp;P1;durP1;ratioP1;P2;durP2;ratioP2
13816;SDS011;6979;52.116;5.286;2023-06-14T00:02:02;4.10;;;2.80;;
13816;SDS011;6979;52.116;5.286;2023-06-14T00:04:29;3.60;;;2.87;;
13816;SDS011;6979;52.116;5.286;2023-06-14T00:06:56;3.20;;;3.00;;
13816;SDS011;6979;52.116;5.286;2023-06-14T00:09:24;4.07;;;3.03;;
13816;SDS011;6979;52.116;5.286;2023-06-14T00:11:53;3.37;;;3.00;;
13816;SDS011;6979;52.116;5.286;2023-06-14T00:14:20;2.77;;;2.53;;
13816;SDS011;6979;52.116;5.286;2023-06-14T00:16:47;2.80;;;2.60;;
13816;SDS011;6979;52.116;5.286;2023-06-14T00:19:14;2.53;;;2.33;;
13816;SDS011;6979;52.116;5.286;2023-06-14T00:21:41;3.13;;;2.93;;
13816;SDS011;6979;52.116;5.286;2023-06-14T00:24:08;4.10;;;3.00;;
13816;SDS011;6979;52.116;5.286;2023-06-14T00:26:36;3.07;;;2.87;;
13816;SDS011;6979;52.116;5.286;2023-06-14T00:29:03;2.40;;;2.20;;
13816;SDS011;6979;52.116;5.286;2023-06-14T00:31:30;3.10;;;2.90;;
13816;SDS011;6979;52.116;5.286;2023-06-14T00:33:59;3.67;;;2.70;;
13816;SDS011;6979;52.116;5.286;2023-06-14T00:36:26;3.53;;;3.27;;
13816;SDS011;6979;52.116;5.286;2023-06-14T00:38:53;4.10;;;3.10;;
13816;SDS011;6979;52.116;5.286;2023-06-14T00:41:21;4.33;;;3.03;;
13816;SDS011;6979;52.116;5.286;2023-06-14T00:43:50;2.83;;;2.67;;
13816;SDS011;6979;52.116;5.286;2023-06-14T00:46:17;3.17;;;2.87;;
13816;SDS011;6979;52.116;5.286;2023-06-14T00:48:44;7.83;;;3.70;;
13816;SDS011;6979;52.116;5.286;2023-06-14T00:51:11;3.57;;;3.13;;
13816;SDS011;6979;52.116;5.286;2023-06-14T00:53:38;3.27;;;3.00;;
13816;SDS011;6979;52.116;5.286;2023-06-14T00:56:11;3.73;;;2.60;;
13816;SDS011;6979;52.116;5.286;2023-06-14T00:58:38;3.77;;;3.10;;
13816;SDS011;6979;52.116;5.286;2023-06-14T01:01:06;2.80;;;2.60;;
13816;SDS011;6979;52.116;5.286;2023-06-14T01:03:33;3.30;;;3.00;;
13816;SDS011;6979;52.116;5.286;2023-06-14T01:06:03;3.57;;;2.67;;
13816;SDS011;6979;52.116;5.286;2023-06-14T01:08:43;3.63;;;2.73;;
13816;SDS011;6979;52.116;5.286;2023-06-14T01:11:18;3.37;;;3.07;;
13816;SDS011;6979;52.116;5.286;2023-06-14T01:13:51;3.10;;;2.77;;
13816;SDS011;6979;52.116;5.286;2023-06-14T01:16:22;2.90;;;2.70;;
13816;SDS011;6979;52.116;5.286;2023-06-14T01:18:50;2.83;;;2.57;;
13816;SDS011;6979;52.116;5.286;2023-06-14T01:21:21;2.53;;;2.33;;
13816;SDS011;6979;52.116;5.286;2023-06-14T01:23:50;3.13;;;2.83;;
13816;SDS011;6979;52.116;5.286;2023-06-14T01:26:18;3.23;;;2.93;;
13816;SDS011;6979;52.116;5.286;2023-06-14T01:28:46;2.97;;;2.60;;
13816;SDS011;6979;52.116;5.286;2023-06-14T01:31:16;2.60;;;2.40;;
13816;SDS011;6979;52.116;5.286;2023-06-14T01:33:44;3.83;;;2.83;;
13816;SDS011;6979;52.116;5.286;2023-06-14T01:36:12;2.30;;;2.20;;
13816;SDS011;6979;52.116;5.286;2023-06-14T01:38:39;2.67;;;2.47;;
13816;SDS011;6979;52.116;5.286;2023-06-14T01:41:09;2.97;;;2.77;;
13816;SDS011;6979;52.116;5.286;2023-06-14T01:43:37;2.77;;;2.57;;
13816;SDS011;6979;52.116;5.286;2023-06-14T01:46:06;3.40;;;2.50;;
13816;SDS011;6979;52.116;5.286;2023-06-14T01:48:34;3.20;;;2.93;;
13816;SDS011;6979;52.116;5.286;2023-06-14T01:51:02;4.03;;;2.77;;
13816;SDS011;6979;52.116;5.286;2023-06-14T01:53:29;3.60;;;2.70;;
13816;SDS011;6979;52.116;5.286;2023-06-14T01:55:56;3.70;;;2.53;;
13816;SDS011;6979;52.116;5.286;2023-06-14T01:58:25;4.37;;;3.17;;
13816;SDS011;6979;52.116;5.286;2023-06-14T02:00:52;3.00;;;2.60;;
13816;SDS011;6979;52.116;5.286;2023-06-14T02:03:21;2.97;;;2.50;;
13816;SDS011;6979;52.116;5.286;2023-06-14T02:05:52;3.30;;;2.80;;
13816;SDS011;6979;52.116;5.286;2023-06-14T02:08:20;3.00;;;2.80;;
13816;SDS011;6979;52.116;5.286;2023-06-14T02:10:46;3.50;;;2.93;;
13816;SDS011;6979;52.116;5.286;2023-06-14T02:13:13;3.73;;;2.83;;
13816;SDS011;6979;52.116;5.286;2023-06-14T02:15:42;2.63;;;2.43;;
13816;SDS011;6979;52.116;5.286;2023-06-14T02:18:10;2.90;;;2.50;;
13816;SDS011;6979;52.116;5.286;2023-06-14T02:20:37;3.27;;;2.97;;
13816;SDS011;6979;52.116;5.286;2023-06-14T02:23:04;2.73;;;2.53;;
13816;SDS011;6979;52.116;5.286;2023-06-14T02:25:32;4.17;;;2.97;;
13816;SDS011;6979;52.116;5.286;2023-06-14T02:27:59;3.10;;;2.27;;
13816;SDS011;6979;52.116;5.286;2023-06-14T02:30:26;3.67;;;2.60;;
13816;SDS011;6979;52.116;5.286;2023-06-14T02:32:56;3.07;;;2.87;;
13816;SDS011;6979;52.116;5.286;2023-06-14T02:35:24;3.30;;;2.90;;
13816;SDS011;6979;52.116;5.286;2023-06-14T02:37:51;2.77;;;2.50;;
13816;SDS011;6979;52.116;5.286;2023-06-14T02:40:21;2.90;;;2.73;;
13816;SDS011;6979;52.116;5.286;2023-06-14T02:42:48;2.60;;;2.40;;
13816;SDS011;6979;52.116;5.286;2023-06-14T02:45:15;4.20;;;2.73;;
13816;SDS011;6979;52.116;5.286;2023-06-14T02:47:43;3.00;;;2.23;;
13816;SDS011;6979;52.116;5.286;2023-06-14T02:50:14;3.00;;;2.80;;
13816;SDS011;6979;52.116;5.286;2023-06-14T02:52:41;3.53;;;2.40;;
13816;SDS011;6979;52.116;5.286;2023-06-14T02:55:09;1.93;;;1.83;;
13816;SDS011;6979;52.116;5.286;2023-06-14T02:57:37;2.60;;;2.40;;
13816;SDS011;6979;52.116;5.286;2023-06-14T03:00:05;2.73;;;2.47;;
13816;SDS011;6979;52.116;5.286;2023-06-14T03:02:35;2.83;;;2.50;;
13816;SDS011;6979;52.116;5.286;2023-06-14T03:05:04;4.47;;;2.90;;
13816;SDS011;6979;52.116;5.286;2023-06-14T03:07:34;3.63;;;2.50;;
13816;SDS011;6979;52.116;5.286;2023-06-14T03:10:07;2.33;;;2.13;;
13816;SDS011;6979;52.116;5.286;2023-06-14T03:12:35;2.60;;;2.40;;
13816;SDS011;6979;52.116;5.286;2023-06-14T03:15:03;6.53;;;2.83;;
13816;SDS011;6979;52.116;5.286;2023-06-14T03:17:35;2.77;;;2.53;;
13816;SDS011;6979;52.116;5.286;2023-06-14T03:20:05;2.50;;;2.30;;
13816;SDS011;6979;52.116;5.286;2023-06-14T03:22:35;2.40;;;2.30;;
13816;SDS011;6979;52.116;5.286;2023-06-14T03:25:02;2.67;;;2.47;;
13816;SDS011;6979;52.116;5.286;2023-06-14T03:27:33;3.13;;;2.40;;
13816;SDS011;6979;52.116;5.286;2023-06-14T03:30:01;2.67;;;2.47;;
13816;SDS011;6979;52.116;5.286;2023-06-14T03:32:30;2.10;;;2.00;;
13816;SDS011;6979;52.116;5.286;2023-06-14T03:34:58;2.57;;;2.47;;
13816;SDS011;6979;52.116;5.286;2023-06-14T03:37:25;2.43;;;2.23;;
13816;SDS011;6979;52.116;5.286;2023-06-14T03:39:53;2.67;;;2.57;;
13816;SDS011;6979;52.116;5.286;2023-06-14T03:42:23;3.87;;;3.00;;
13816;SDS011;6979;52.116;5.286;2023-06-14T03:44:50;5.23;;;2.40;;
13816;SDS011;6979;52.116;5.286;2023-06-14T03:47:20;2.87;;;2.67;;
13816;SDS011;6979;52.116;5.286;2023-06-14T03:49:46;3.40;;;2.70;;
13816;SDS011;6979;52.116;5.286;2023-06-14T03:52:14;2.27;;;2.17;;
13816;SDS011;6979;52.116;5.286;2023-06-14T03:54:43;2.50;;;2.30;;
13816;SDS011;6979;52.116;5.286;2023-06-14T03:57:13;5.73;;;2.80;;
13816;SDS011;6979;52.116;5.286;2023-06-14T03:59:41;2.77;;;2.57;;
13816;SDS011;6979;52.116;5.286;2023-06-14T04:02:08;3.00;;;2.30;;
13816;SDS011;6979;52.116;5.286;2023-06-14T04:04:35;2.37;;;2.10;;
13816;SDS011;6979;52.116;5.286;2023-06-14T04:07:04;2.20;;;2.10;;
13816;SDS011;6979;52.116;5.286;2023-06-14T04:09:31;2.57;;;2.43;;
13816;SDS011;6979;52.116;5.286;2023-06-14T04:11:58;3.77;;;2.27;;
13816;SDS011;6979;52.116;5.286;2023-06-14T04:14:26;3.50;;;2.70;;
13816;SDS011;6979;52.116;5.286;2023-06-14T04:16:53;3.17;;;2.47;;
13816;SDS011;6979;52.116;5.286;2023-06-14T04:19:21;5.43;;;2.80;;
13816;SDS011;6979;52.116;5.286;2023-06-14T04:21:48;2.87;;;2.67;;
13816;SDS011;6979;52.116;5.286;2023-06-14T04:24:16;3.67;;;2.53;;
13816;SDS011;6979;52.116;5.286;2023-06-14T04:26:46;2.80;;;2.10;;
13816;SDS011;6979;52.116;5.286;2023-06-14T04:29:16;4.63;;;2.27;;
13816;SDS011;6979;52.116;5.286;2023-06-14T04:31:51;3.77;;;2.93;;
13816;SDS011;6979;52.116;5.286;2023-06-14T04:34:24;2.73;;;2.53;;
13816;SDS011;6979;52.116;5.286;2023-06-14T04:36:55;2.83;;;2.63;;
13816;SDS011;6979;52.116;5.286;2023-06-14T04:39:30;4.47;;;2.43;;
13816;SDS011;6979;52.116;5.286;2023-06-14T04:41:59;2.70;;;2.50;;
13816;SDS011;6979;52.116;5.286;2023-06-14T04:44:28;2.33;;;2.23;;
13816;SDS011;6979;52.116;5.286;2023-06-14T04:47:00;3.20;;;2.90;;
13816;SDS011;6979;52.116;5.286;2023-06-14T04:49:27;3.30;;;2.47;;
13816;SDS011;6979;52.116;5.286;2023-06-14T04:51:56;3.13;;;2.37;;
13816;SDS011;6979;52.116;5.286;2023-06-14T04:54:26;4.47;;;2.73;;
13816;SDS011;6979;52.116;5.286;2023-06-14T04:56:56;3.07;;;2.87;;
13816;SDS011;6979;52.116;5.286;2023-06-14T04:59:25;2.80;;;2.60;;
13816;SDS011;6979;52.116;5.286;2023-06-14T05:01:52;3.20;;;2.93;;
13816;SDS011;6979;52.116;5.286;2023-06-14T05:04:23;5.23;;;2.90;;
13816;SDS011;6979;52.116;5.286;2023-06-14T05:06:52;2.70;;;2.50;;
13816;SDS011;6979;52.116;5.286;2023-06-14T05:09:20;3.63;;;2.80;;
13816;SDS011;6979;52.116;5.286;2023-06-14T05:11:47;3.07;;;2.47;;
13816;SDS011;6979;52.116;5.286;2023-06-14T05:14:15;3.07;;;2.87;;
13816;SDS011;6979;52.116;5.286;2023-06-14T05:16:43;4.60;;;2.87;;
13816;SDS011;6979;52.116;5.286;2023-06-14T05:19:09;2.73;;;2.50;;
13816;SDS011;6979;52.116;5.286;2023-06-14T05:21:38;3.33;;;3.07;;
13816;SDS011;6979;52.116;5.286;2023-06-14T05:24:05;3.13;;;2.00;;
13816;SDS011;6979;52.116;5.286;2023-06-14T05:26:34;3.30;;;2.50;;
13816;SDS011;6979;52.116;5.286;2023-06-14T05:29:01;2.67;;;2.50;;
13816;SDS011;6979;52.116;5.286;2023-06-14T05:31:28;3.00;;;2.80;;
13816;SDS011;6979;52.116;5.286;2023-06-14T05:33:55;2.40;;;2.20;;
13816;SDS011;6979;52.116;5.286;2023-06-14T05:36:22;2.80;;;2.57;;
13816;SDS011;6979;52.116;5.286;2023-06-14T05:38:50;2.83;;;2.43;;
13816;SDS011;6979;52.116;5.286;2023-06-14T05:41:22;2.87;;;2.67;;
13816;SDS011;6979;52.116;5.286;2023-06-14T05:43:50;3.40;;;2.67;;
13816;SDS011;6979;52.116;5.286;2023-06-14T05:46:16;3.00;;;2.57;;
13816;SDS011;6979;52.116;5.286;2023-06-14T05:48:47;3.10;;;2.77;;
13816;SDS011;6979;52.116;5.286;2023-06-14T05:51:14;3.40;;;3.10;;
13816;SDS011;6979;52.116;5.286;2023-06-14T05:53:43;2.60;;;2.40;;
13816;SDS011;6979;52.116;5.286;2023-06-14T05:56:12;3.70;;;2.50;;
13816;SDS011;6979;52.116;5.286;2023-06-14T05:58:39;3.10;;;2.90;;
13816;SDS011;6979;52.116;5.286;2023-06-14T06:01:06;3.63;;;2.47;;
13816;SDS011;6979;52.116;5.286;2023-06-14T06:03:33;2.77;;;2.57;;
13816;SDS011;6979;52.116;5.286;2023-06-14T06:06:00;3.80;;;2.70;;
13816;SDS011;6979;52.116;5.286;2023-06-14T06:08:28;3.63;;;3.10;;
13816;SDS011;6979;52.116;5.286;2023-06-14T06:10:55;2.67;;;2.47;;
13816;SDS011;6979;52.116;5.286;2023-06-14T06:13:23;3.77;;;2.50;;
13816;SDS011;6979;52.116;5.286;2023-06-14T06:15:50;6.03;;;2.93;;
13816;SDS011;6979;52.116;5.286;2023-06-14T06:18:17;2.90;;;2.70;;
13816;SDS011;6979;52.116;5.286;2023-06-14T06:20:44;2.83;;;2.63;;
13816;SDS011;6979;52.116;5.286;2023-06-14T06:23:12;3.60;;;3.30;;
13816;SDS011;6979;52.116;5.286;2023-06-14T06:25:39;2.80;;;2.57;;
13816;SDS011;6979;52.116;5.286;2023-06-14T06:28:06;2.37;;;2.17;;
13816;SDS011;6979;52.116;5.286;2023-06-14T06:30:34;2.57;;;2.37;;
13816;SDS011;6979;52.116;5.286;2023-06-14T06:33:02;3.83;;;2.90;;
13816;SDS011;6979;52.116;5.286;2023-06-14T06:35:29;3.10;;;2.90;;
13816;SDS011;6979;52.116;5.286;2023-06-14T06:37:58;3.47;;;3.23;;
13816;SDS011;6979;52.116;5.286;2023-06-14T06:40:25;4.83;;;2.93;;
13816;SDS011;6979;52.116;5.286;2023-06-14T06:42:52;4.70;;;2.70;;
13816;SDS011;6979;52.116;5.286;2023-06-14T06:45:19;2.60;;;2.50;;
13816;SDS011;6979;52.116;5.286;2023-06-14T06:47:47;3.03;;;2.73;;
13816;SDS011;6979;52.116;5.286;2023-06-14T06:50:15;2.90;;;2.63;;
13816;SDS011;6979;52.116;5.286;2023-06-14T06:52:43;3.07;;;2.80;;
13816;SDS011;6979;52.116;5.286;2023-06-14T06:55:11;6.30;;;3.07;;
13816;SDS011;6979;52.116;5.286;2023-06-14T06:57:38;4.37;;;3.83;;
13816;SDS011;6979;52.116;5.286;2023-06-14T07:00:05;3.60;;;2.80;;
13816;SDS011;6979;52.116;5.286;2023-06-14T07:02:34;3.33;;;3.03;;
13816;SDS011;6979;52.116;5.286;2023-06-14T07:05:03;3.20;;;2.60;;
13816;SDS011;6979;52.116;5.286;2023-06-14T07:07:30;2.87;;;2.67;;
13816;SDS011;6979;52.116;5.286;2023-06-14T07:09:57;3.03;;;2.83;;
13816;SDS011;6979;52.116;5.286;2023-06-14T07:12:25;2.97;;;2.77;;
13816;SDS011;6979;52.116;5.286;2023-06-14T07:14:52;3.50;;;3.20;;
13816;SDS011;6979;52.116;5.286;2023-06-14T07:17:19;3.20;;;3.00;;
13816;SDS011;6979;52.116;5.286;2023-06-14T07:19:45;3.10;;;2.90;;
13816;SDS011;6979;52.116;5.286;2023-06-14T07:22:16;3.73;;;3.10;;
13816;SDS011;6979;52.116;5.286;2023-06-14T07:24:42;3.10;;;2.80;;
13816;SDS011;6979;52.116;5.286;2023-06-14T07:27:09;3.27;;;3.03;;
13816;SDS011;6979;52.116;5.286;2023-06-14T07:29:38;3.13;;;2.90;;
13816;SDS011;6979;52.116;5.286;2023-06-14T07:32:05;2.63;;;2.53;;
13816;SDS011;6979;52.116;5.286;2023-06-14T07:34:33;4.60;;;2.60;;
13816;SDS011;6979;52.116;5.286;2023-06-14T07:36:59;2.67;;;2.57;;
13816;SDS011;6979;52.116;5.286;2023-06-14T07:39:28;3.20;;;2.90;;
13816;SDS011;6979;52.116;5.286;2023-06-14T07:41:56;3.07;;;2.87;;
13816;SDS011;6979;52.116;5.286;2023-06-14T07:44:23;2.73;;;2.63;;
13816;SDS011;6979;52.116;5.286;2023-06-14T07:46:50;2.67;;;2.53;;
13816;SDS011;6979;52.116;5.286;2023-06-14T07:49:16;7.50;;;2.73;;
13816;SDS011;6979;52.116;5.286;2023-06-14T07:51:43;3.13;;;2.93;;
13816;SDS011;6979;52.116;5.286;2023-06-14T07:54:11;4.03;;;2.47;;
13816;SDS011;6979;52.116;5.286;2023-06-14T07:56:40;2.57;;;2.30;;
13816;SDS011;6979;52.116;5.286;2023-06-14T07:59:07;2.63;;;2.43;;
13816;SDS011;6979;52.116;5.286;2023-06-14T08:01:34;2.90;;;2.70;;
13816;SDS011;6979;52.116;5.286;2023-06-14T08:04:01;4.43;;;2.87;;
13816;SDS011;6979;52.116;5.286;2023-06-14T08:06:28;2.60;;;2.40;;
13816;SDS011;6979;52.116;5.286;2023-06-14T08:08:55;3.50;;;3.07;;
13816;SDS011;6979;52.116;5.286;2023-06-14T08:11:24;2.67;;;2.47;;
13816;SDS011;6979;52.116;5.286;2023-06-14T08:13:56;3.03;;;2.70;;
13816;SDS011;6979;52.116;5.286;2023-06-14T08:16:25;4.40;;;2.40;;
13816;SDS011;6979;52.116;5.286;2023-06-14T08:18:51;2.50;;;2.40;;
13816;SDS011;6979;52.116;5.286;2023-06-14T08:21:18;2.13;;;2.03;;
13816;SDS011;6979;52.116;5.286;2023-06-14T08:23:45;3.03;;;2.33;;
13816;SDS011;6979;52.116;5.286;2023-06-14T08:26:12;2.00;;;1.90;;
13816;SDS011;6979;52.116;5.286;2023-06-14T08:28:39;2.33;;;2.13;;
13816;SDS011;6979;52.116;5.286;2023-06-14T08:31:08;2.17;;;2.00;;
13816;SDS011;6979;52.116;5.286;2023-06-14T08:33:36;2.53;;;2.30;;
13816;SDS011;6979;52.116;5.286;2023-06-14T08:36:04;2.30;;;2.20;;
13816;SDS011;6979;52.116;5.286;2023-06-14T08:38:31;2.40;;;2.20;;
13816;SDS011;6979;52.116;5.286;2023-06-14T08:40:58;2.23;;;1.90;;
13816;SDS011;6979;52.116;5.286;2023-06-14T08:43:27;2.10;;;2.00;;
13816;SDS011;6979;52.116;5.286;2023-06-14T08:45:56;2.10;;;2.00;;
13816;SDS011;6979;52.116;5.286;2023-06-14T08:48:30;2.63;;;2.43;;
13816;SDS011;6979;52.116;5.286;2023-06-14T08:50:59;2.07;;;1.97;;
13816;SDS011;6979;52.116;5.286;2023-06-14T08:53:27;1.87;;;1.77;;
13816;SDS011;6979;52.116;5.286;2023-06-14T08:55:57;1.60;;;1.50;;
13816;SDS011;6979;52.116;5.286;2023-06-14T08:58:26;2.20;;;2.10;;
13816;SDS011;6979;52.116;5.286;2023-06-14T09:00:54;1.53;;;1.43;;
13816;SDS011;6979;52.116;5.286;2023-06-14T09:03:22;2.00;;;1.90;;
13816;SDS011;6979;52.116;5.286;2023-06-14T09:05:56;1.80;;;1.70;;
13816;SDS011;6979;52.116;5.286;2023-06-14T09:08:25;2.00;;;1.77;;
13816;SDS011;6979;52.116;5.286;2023-06-14T09:10:55;1.17;;;1.17;;
13816;SDS011;6979;52.116;5.286;2023-06-14T09:13:23;2.83;;;1.97;;
13816;SDS011;6979;52.116;5.286;2023-06-14T09:15:50;2.33;;;2.13;;
13816;SDS011;6979;52.116;5.286;2023-06-14T09:18:17;1.67;;;1.63;;
13816;SDS011;6979;52.116;5.286;2023-06-14T09:20:45;1.80;;;1.70;;
13816;SDS011;6979;52.116;5.286;2023-06-14T09:23:14;1.93;;;1.83;;
13816;SDS011;6979;52.116;5.286;2023-06-14T09:25:47;1.80;;;1.70;;
13816;SDS011;6979;52.116;5.286;2023-06-14T09:28:14;3.17;;;1.70;;
13816;SDS011;6979;52.116;5.286;2023-06-14T09:30:41;2.67;;;2.00;;
13816;SDS011;6979;52.116;5.286;2023-06-14T09:33:10;1.93;;;1.47;;
13816;SDS011;6979;52.116;5.286;2023-06-14T09:35:44;2.50;;;2.13;;
13816;SDS011;6979;52.116;5.286;2023-06-14T09:38:11;1.97;;;1.83;;
13816;SDS011;6979;52.116;5.286;2023-06-14T09:40:40;2.40;;;1.77;;
13816;SDS011;6979;52.116;5.286;2023-06-14T09:43:06;2.03;;;1.93;;
13816;SDS011;6979;52.116;5.286;2023-06-14T09:45:35;1.70;;;1.60;;
13816;SDS011;6979;52.116;5.286;2023-06-14T09:48:04;1.40;;;1.40;;
13816;SDS011;6979;52.116;5.286;2023-06-14T09:50:32;1.33;;;1.33;;
13816;SDS011;6979;52.116;5.286;2023-06-14T09:53:02;1.40;;;1.40;;
13816;SDS011;6979;52.116;5.286;2023-06-14T09:55:33;1.50;;;1.40;;
13816;SDS011;6979;52.116;5.286;2023-06-14T09:58:04;1.70;;;1.60;;
13816;SDS011;6979;52.116;5.286;2023-06-14T10:00:32;2.67;;;1.77;;
13816;SDS011;6979;52.116;5.286;2023-06-14T10:03:00;1.60;;;1.50;;
13816;SDS011;6979;52.116;5.286;2023-06-14T10:05:31;1.45;;;1.45;;
13816;SDS011;6979;52.116;5.286;2023-06-14T10:08:04;1.70;;;1.60;;
13816;SDS011;6979;52.116;5.286;2023-06-14T10:10:34;1.70;;;1.47;;
13816;SDS011;6979;52.116;5.286;2023-06-14T10:13:00;1.60;;;1.50;;
13816;SDS011;6979;52.116;5.286;2023-06-14T10:15:30;2.17;;;2.07;;
13816;SDS011;6979;52.116;5.286;2023-06-14T10:18:05;1.65;;;1.52;;
13816;SDS011;6979;52.116;5.286;2023-06-14T10:20:42;1.92;;;1.83;;
13816;SDS011;6979;52.116;5.286;2023-06-14T10:23:17;2.08;;;1.65;;
13816;SDS011;6979;52.116;5.286;2023-06-14T10:25:49;1.70;;;1.60;;
13816;SDS011;6979;52.116;5.286;2023-06-14T10:28:16;1.65;;;1.55;;
13816;SDS011;6979;52.116;5.286;2023-06-14T10:31:04;1.85;;;1.40;;
13816;SDS011;6979;52.116;5.286;2023-06-14T10:33:32;1.40;;;1.40;;
13816;SDS011;6979;52.116;5.286;2023-06-14T10:36:07;1.83;;;1.50;;
13816;SDS011;6979;52.116;5.286;2023-06-14T10:38:58;8.57;;;1.90;;
13816;SDS011;6979;52.116;5.286;2023-06-14T10:41:27;1.75;;;1.65;;
13816;SDS011;6979;52.116;5.286;2023-06-14T10:47:01;1.63;;;1.52;;
13816;SDS011;6979;52.116;5.286;2023-06-14T10:49:39;3.50;;;1.77;;
13816;SDS011;6979;52.116;5.286;2023-06-14T10:52:08;2.03;;;1.92;;
13816;SDS011;6979;52.116;5.286;2023-06-14T10:54:55;2.92;;;1.75;;
13816;SDS011;6979;52.116;5.286;2023-06-14T10:57:31;2.53;;;1.88;;
13816;SDS011;6979;52.116;5.286;2023-06-14T10:59:58;2.55;;;1.90;;
13816;SDS011;6979;52.116;5.286;2023-06-14T11:02:44;2.45;;;1.52;;
13816;SDS011;6979;52.116;5.286;2023-06-14T11:05:21;1.50;;;1.42;;
13816;SDS011;6979;52.116;5.286;2023-06-14T11:07:55;1.88;;;1.77;;
13816;SDS011;6979;52.116;5.286;2023-06-14T11:10:33;1.60;;;1.60;;
13816;SDS011;6979;52.116;5.286;2023-06-14T11:13:03;1.88;;;1.48;;
13816;SDS011;6979;52.116;5.286;2023-06-14T11:15:30;1.85;;;1.75;;
13816;SDS011;6979;52.116;5.286;2023-06-14T11:17:59;1.65;;;1.55;;
13816;SDS011;6979;52.116;5.286;2023-06-14T11:20:29;1.48;;;1.48;;
13816;SDS011;6979;52.116;5.286;2023-06-14T11:22:57;1.77;;;1.67;;
13816;SDS011;6979;52.116;5.286;2023-06-14T11:25:24;1.25;;;1.25;;
13816;SDS011;6979;52.116;5.286;2023-06-14T11:27:53;1.92;;;1.83;;
13816;SDS011;6979;52.116;5.286;2023-06-14T11:30:21;1.92;;;1.83;;
13816;SDS011;6979;52.116;5.286;2023-06-14T11:32:48;1.60;;;1.50;;
13816;SDS011;6979;52.116;5.286;2023-06-14T11:35:18;2.83;;;1.63;;
13816;SDS011;6979;52.116;5.286;2023-06-14T11:37:45;1.83;;;1.73;;
13816;SDS011;6979;52.116;5.286;2023-06-14T11:40:12;1.80;;;1.70;;
13816;SDS011;6979;52.116;5.286;2023-06-14T11:42:40;1.33;;;1.30;;
13816;SDS011;6979;52.116;5.286;2023-06-14T11:45:07;1.90;;;1.80;;
13816;SDS011;6979;52.116;5.286;2023-06-14T11:47:35;2.15;;;1.88;;
13816;SDS011;6979;52.116;5.286;2023-06-14T11:50:05;1.88;;;1.80;;
13816;SDS011;6979;52.116;5.286;2023-06-14T11:52:35;2.53;;;1.95;;
13816;SDS011;6979;52.116;5.286;2023-06-14T11:55:03;1.70;;;1.60;;
13816;SDS011;6979;52.116;5.286;2023-06-14T11:57:33;1.85;;;1.30;;
13816;SDS011;6979;52.116;5.286;2023-06-14T12:00:02;1.80;;;1.63;;
13816;SDS011;6979;52.116;5.286;2023-06-14T12:02:36;1.98;;;1.65;;
13816;SDS011;6979;52.116;5.286;2023-06-14T12:05:04;1.92;;;1.83;;
13816;SDS011;6979;52.116;5.286;2023-06-14T12:07:33;1.73;;;1.63;;
13816;SDS011;6979;52.116;5.286;2023-06-14T12:10:04;1.80;;;1.70;;
13816;SDS011;6979;52.116;5.286;2023-06-14T12:12:34;1.88;;;1.80;;
13816;SDS011;6979;52.116;5.286;2023-06-14T12:15:02;4.70;;;1.70;;
13816;SDS011;6979;52.116;5.286;2023-06-14T12:17:31;2.30;;;2.20;;
13816;SDS011;6979;52.116;5.286;2023-06-14T12:20:04;1.85;;;1.75;;
13816;SDS011;6979;52.116;5.286;2023-06-14T12:22:36;1.45;;;1.42;;
13816;SDS011;6979;52.116;5.286;2023-06-14T12:25:04;1.80;;;1.70;;
13816;SDS011;6979;52.116;5.286;2023-06-14T12:27:31;1.70;;;1.70;;
13816;SDS011;6979;52.116;5.286;2023-06-14T12:29:58;1.40;;;1.40;;
13816;SDS011;6979;52.116;5.286;2023-06-14T12:32:26;1.90;;;1.80;;
13816;SDS011;6979;52.116;5.286;2023-06-14T12:34:53;1.77;;;1.75;;
13816;SDS011;6979;52.116;5.286;2023-06-14T12:37:20;1.63;;;1.60;;
13816;SDS011;6979;52.116;5.286;2023-06-14T12:39:48;1.80;;;1.70;;
13816;SDS011;6979;52.116;5.286;2023-06-14T12:42:16;1.80;;;1.70;;
13816;SDS011;6979;52.116;5.286;2023-06-14T12:44:43;3.13;;;1.98;;
13816;SDS011;6979;52.116;5.286;2023-06-14T12:47:10;1.67;;;1.63;;
13816;SDS011;6979;52.116;5.286;2023-06-14T12:49:38;1.85;;;1.75;;
13816;SDS011;6979;52.116;5.286;2023-06-14T12:52:06;1.77;;;1.67;;
13816;SDS011;6979;52.116;5.286;2023-06-14T12:54:34;1.80;;;1.70;;
13816;SDS011;6979;52.116;5.286;2023-06-14T12:57:03;1.90;;;1.80;;
13816;SDS011;6979;52.116;5.286;2023-06-14T12:59:30;2.13;;;2.00;;
13816;SDS011;6979;52.116;5.286;2023-06-14T13:01:59;1.80;;;1.63;;
13816;SDS011;6979;52.116;5.286;2023-06-14T13:04:36;1.95;;;1.85;;
13816;SDS011;6979;52.116;5.286;2023-06-14T13:07:03;2.05;;;1.95;;
13816;SDS011;6979;52.116;5.286;2023-06-14T13:09:30;2.50;;;1.98;;
13816;SDS011;6979;52.116;5.286;2023-06-14T13:11:57;2.25;;;1.80;;
13816;SDS011;6979;52.116;5.286;2023-06-14T13:14:25;1.58;;;1.48;;
13816;SDS011;6979;52.116;5.286;2023-06-14T13:16:52;1.40;;;1.40;;
13816;SDS011;6979;52.116;5.286;2023-06-14T13:19:20;2.55;;;1.70;;
13816;SDS011;6979;52.116;5.286;2023-06-14T13:21:47;2.45;;;1.80;;
13816;SDS011;6979;52.116;5.286;2023-06-14T13:24:15;2.63;;;1.70;;
13816;SDS011;6979;52.116;5.286;2023-06-14T13:26:42;1.80;;;1.70;;
13816;SDS011;6979;52.116;5.286;2023-06-14T13:29:09;1.27;;;1.27;;
13816;SDS011;6979;52.116;5.286;2023-06-14T13:31:37;1.67;;;1.65;;
13816;SDS011;6979;52.116;5.286;2023-06-14T13:34:04;1.70;;;1.60;;
13816;SDS011;6979;52.116;5.286;2023-06-14T13:36:31;1.73;;;1.65;;
13816;SDS011;6979;52.116;5.286;2023-06-14T13:38:58;1.80;;;1.70;;
13816;SDS011;6979;52.116;5.286;2023-06-14T13:41:25;1.75;;;1.65;;
13816;SDS011;6979;52.116;5.286;2023-06-14T13:43:57;1.77;;;1.67;;
13816;SDS011;6979;52.116;5.286;2023-06-14T13:46:24;1.60;;;1.50;;
13816;SDS011;6979;52.116;5.286;2023-06-14T13:48:53;1.60;;;1.50;;
13816;SDS011;6979;52.116;5.286;2023-06-14T13:51:20;1.50;;;1.50;;
13816;SDS011;6979;52.116;5.286;2023-06-14T13:53:47;1.92;;;1.58;;
13816;SDS011;6979;52.116;5.286;2023-06-14T13:56:15;1.92;;;1.77;;
13816;SDS011;6979;52.116;5.286;2023-06-14T13:58:48;1.55;;;1.45;;
13816;SDS011;6979;52.116;5.286;2023-06-14T14:01:26;1.88;;;1.77;;
13816;SDS011;6979;52.116;5.286;2023-06-14T14:03:55;1.80;;;1.70;;
13816;SDS011;6979;52.116;5.286;2023-06-14T14:06:23;1.73;;;1.63;;
13816;SDS011;6979;52.116;5.286;2023-06-14T14:08:50;2.28;;;1.77;;
13816;SDS011;6979;52.116;5.286;2023-06-14T14:11:17;1.75;;;1.65;;
13816;SDS011;6979;52.116;5.286;2023-06-14T14:13:44;3.13;;;1.60;;
13816;SDS011;6979;52.116;5.286;2023-06-14T14:16:12;1.92;;;1.83;;
13816;SDS011;6979;52.116;5.286;2023-06-14T14:18:39;1.83;;;1.75;;
13816;SDS011;6979;52.116;5.286;2023-06-14T14:21:07;1.73;;;1.63;;
13816;SDS011;6979;52.116;5.286;2023-06-14T14:23:34;1.92;;;1.83;;
13816;SDS011;6979;52.116;5.286;2023-06-14T14:26:01;3.45;;;1.75;;
13816;SDS011;6979;52.116;5.286;2023-06-14T14:28:30;5.25;;;1.65;;
13816;SDS011;6979;52.116;5.286;2023-06-14T14:30:57;2.38;;;1.70;;
13816;SDS011;6979;52.116;5.286;2023-06-14T14:33:24;1.40;;;1.40;;
13816;SDS011;6979;52.116;5.286;2023-06-14T14:35:51;1.67;;;1.67;;
13816;SDS011;6979;52.116;5.286;2023-06-14T14:38:19;2.10;;;2.00;;
13816;SDS011;6979;52.116;5.286;2023-06-14T14:40:46;1.60;;;1.58;;
13816;SDS011;6979;52.116;5.286;2023-06-14T14:43:13;2.85;;;1.40;;
13816;SDS011;6979;52.116;5.286;2023-06-14T14:45:40;2.67;;;1.90;;
13816;SDS011;6979;52.116;5.286;2023-06-14T14:48:07;2.55;;;1.77;;
13816;SDS011;6979;52.116;5.286;2023-06-14T14:50:34;1.58;;;1.48;;
13816;SDS011;6979;52.116;5.286;2023-06-14T14:53:01;1.40;;;1.35;;
13816;SDS011;6979;52.116;5.286;2023-06-14T14:55:29;1.40;;;1.40;;
13816;SDS011;6979;52.116;5.286;2023-06-14T14:57:57;1.55;;;1.48;;
13816;SDS011;6979;52.116;5.286;2023-06-14T15:00:24;1.48;;;1.38;;
13816;SDS011;6979;52.116;5.286;2023-06-14T15:02:51;1.67;;;1.58;;
13816;SDS011;6979;52.116;5.286;2023-06-14T15:05:18;1.90;;;1.80;;
13816;SDS011;6979;52.116;5.286;2023-06-14T15:07:45;1.60;;;1.50;;
13816;SDS011;6979;52.116;5.286;2023-06-14T15:10:12;1.30;;;1.30;;
13816;SDS011;6979;52.116;5.286;2023-06-14T15:12:40;2.17;;;1.35;;